CheckWX is a tool to help pilots better visualize weather data.  It is not intended as a substitute for an official pre-flight weather briefing.

13:37:18 UTC

4A9 METAR
Isbell Field Airport
Fort Payne, Alabama, USA
Current

22 mins ago

K4A9 201315Z AUTO 00000KT 10SM BKN013 OVC019 19/18 A3008 RMK AO2 T01930182
Observed
May-20 @ 13:15 UTC
Visibility
10 SM
Flight Rules
MVFR
Cloud Levels
  • Broken at 1,300' AGL
  • Overcast at 1,900' AGL
Temperature
19°C / 66°F
Dewpoint
18°C / 64°F
Humidity
94%
Altimeter
30.08" Hg
Pressure
1018.62 hPa
Previous

42 mins ago

K4A9 201255Z AUTO 00000KT 10SM OVC015 19/18 A3007 RMK AO2 T01880179
Observed
May-20 @ 12:55 UTC
Visibility
10 SM
Flight Rules
MVFR
Cloud Levels
  • Overcast at 1,500' AGL
Temperature
19°C / 66°F
Dewpoint
18°C / 64°F
Humidity
94%
Altimeter
30.07" Hg
Pressure
1018.32 hPa
Previous

1 hour ago

K4A9 201235Z AUTO 00000KT 10SM OVC013 18/17 A3007 RMK AO2 T01810175
Observed
May-20 @ 12:35 UTC
Visibility
10 SM
Flight Rules
MVFR
Cloud Levels
  • Overcast at 1,300' AGL
Temperature
18°C / 64°F
Dewpoint
18°C / 64°F
Humidity
100%
Altimeter
30.07" Hg
Pressure
1018.32 hPa